Time;durP1;ratioP1;P1;durP2;ratioP2;P2;SDS_P1;SDS_P2;PMS_P1;PMS_P2;Temp;Humidity;BMP_temperature;BMP_pressure;BME280_temperature;BME280_humidity;BME280_pressure;Samples;Min_cycle;Max_cycle;Signal;HPM_P1;HPM_P2
2024/04/17 00:00:35;;;;;;;;;;;5.50;99.90;;;;;;5450800;26;20349;-72
2024/04/17 00:03:00;;;;;;;;;;;5.60;99.90;;;;;;5452164;26;20314;-74
2024/04/17 00:05:26;;;;;;;;;;;5.60;99.90;;;;;;5450547;26;19975;-73
2024/04/17 00:07:51;;;;;;;;;;;5.60;99.90;;;;;;5449675;26;19925;-74
2024/04/17 00:10:17;;;;;;;;;;;5.70;99.90;;;;;;5450115;26;19925;-75
2024/04/17 00:12:43;;;;;;;;;;;5.70;99.90;;;;;;5445505;26;20350;-73
2024/04/17 00:15:08;;;;;;;;;;;5.70;99.90;;;;;;5450869;26;19924;-73
2024/04/17 00:17:33;;;;;;;;;;;5.70;99.90;;;;;;5450450;26;20362;-74
2024/04/17 00:19:59;;;;;;;;;;;5.70;99.90;;;;;;5450668;26;19924;-74
2024/04/17 00:22:24;;;;;;;;;;;5.80;99.90;;;;;;5450452;26;19924;-74
2024/04/17 00:24:50;;;;;;;;;;;5.80;99.90;;;;;;5454971;26;19931;-74
2024/04/17 00:27:16;;;;;;;;;;;5.70;99.90;;;;;;5460745;26;19924;-74
2024/04/17 00:29:41;;;;;;;;;;;5.70;99.90;;;;;;5458460;26;19924;-75
2024/04/17 00:32:07;;;;;;;;;;;5.70;99.90;;;;;;5452604;26;19924;-74
2024/04/17 00:34:33;;;;;;;;;;;5.70;99.90;;;;;;5462048;26;19925;-75
2024/04/17 00:36:58;;;;;;;;;;;5.70;99.90;;;;;;5459265;26;20002;-75
2024/04/17 00:39:26;;;;;;;;;;;5.70;99.90;;;;;;5454164;26;20358;-73
2024/04/17 00:41:51;;;;;;;;;;;5.70;99.90;;;;;;5452320;26;19932;-74
2024/04/17 00:44:17;;;;;;;;;;;5.80;99.90;;;;;;5452255;26;19925;-74
2024/04/17 00:46:43;;;;;;;;;;;5.80;99.90;;;;;;5449950;26;19966;-74
2024/04/17 00:49:09;;;;;;;;;;;5.80;99.90;;;;;;5449755;26;20447;-74
2024/04/17 00:51:34;;;;;;;;;;;5.80;99.90;;;;;;5449931;26;19930;-75
2024/04/17 00:54:00;;;;;;;;;;;5.80;99.90;;;;;;5449721;26;19924;-74
2024/04/17 00:56:26;;;;;;;;;;;5.80;99.90;;;;;;5449515;26;19924;-74
2024/04/17 00:58:51;;;;;;;;;;;5.80;99.90;;;;;;5449687;26;19931;-74
2024/04/17 01:01:17;;;;;;;;;;;5.90;99.90;;;;;;5449682;26;19940;-75
2024/04/17 01:03:42;;;;;;;;;;;5.80;99.90;;;;;;5451673;26;19932;-74
2024/04/17 01:06:08;;;;;;;;;;;5.90;99.90;;;;;;5451342;26;19924;-74
2024/04/17 01:08:34;;;;;;;;;;;5.90;99.90;;;;;;5451449;26;19925;-74
2024/04/17 01:11:02;;;;;;;;;;;5.80;99.90;;;;;;5449639;26;19924;-74
2024/04/17 01:13:28;;;;;;;;;;;5.90;99.90;;;;;;5451738;26;20364;-74
2024/04/17 01:15:55;;;;;;;;;;;5.90;99.90;;;;;;5451469;26;19925;-74
2024/04/17 01:18:21;;;;;;;;;;;5.80;99.90;;;;;;5451759;26;19933;-74
2024/04/17 01:20:47;;;;;;;;;;;5.80;99.90;;;;;;5451415;26;19929;-75
2024/04/17 01:23:12;;;;;;;;;;;5.80;99.90;;;;;;5451127;26;19925;-75
2024/04/17 01:25:38;;;;;;;;;;;5.80;99.90;;;;;;5451408;26;20431;-75
2024/04/17 01:28:03;;;;;;;;;;;5.80;99.90;;;;;;5451350;26;19961;-74
2024/04/17 01:30:29;;;;;;;;;;;5.80;99.90;;;;;;5451326;26;20238;-74
2024/04/17 01:32:54;;;;;;;;;;;5.80;99.90;;;;;;5451353;26;19924;-74
2024/04/17 01:35:20;;;;;;;;;;;5.70;99.90;;;;;;5451897;26;19924;-75
2024/04/17 01:37:45;;;;;;;;;;;5.70;99.90;;;;;;5450990;26;19947;-74
2024/04/17 01:40:11;;;;;;;;;;;5.60;99.90;;;;;;5449371;26;20377;-74
2024/04/17 01:42:36;;;;;;;;;;;5.50;99.90;;;;;;5450109;26;19924;-74
2024/04/17 01:45:02;;;;;;;;;;;5.40;99.90;;;;;;5451590;26;19964;-74
2024/04/17 01:47:27;;;;;;;;;;;5.30;99.90;;;;;;5448971;26;19924;-74
2024/04/17 01:49:53;;;;;;;;;;;5.20;99.90;;;;;;5449413;26;19964;-74
2024/04/17 01:52:18;;;;;;;;;;;5.10;99.90;;;;;;5449035;26;20246;-74
2024/04/17 01:54:44;;;;;;;;;;;5.00;99.90;;;;;;5450750;26;19931;-73
2024/04/17 01:57:09;;;;;;;;;;;5.00;99.90;;;;;;5448848;26;19931;-74
2024/04/17 01:59:35;;;;;;;;;;;4.90;99.90;;;;;;5450981;26;20365;-74
2024/04/17 02:02:01;;;;;;;;;;;4.90;99.90;;;;;;5448981;26;20365;-74
2024/04/17 02:04:26;;;;;;;;;;;4.80;99.90;;;;;;5450421;26;20017;-74
2024/04/17 02:06:52;;;;;;;;;;;4.80;99.90;;;;;;5448845;26;20230;-74
2024/04/17 02:09:17;;;;;;;;;;;4.70;99.90;;;;;;5450809;26;20261;-74
2024/04/17 02:11:44;;;;;;;;;;;4.60;99.90;;;;;;5450806;26;20346;-74
2024/04/17 02:14:10;;;;;;;;;;;4.50;99.90;;;;;;5451484;26;19928;-74
2024/04/17 02:16:35;;;;;;;;;;;4.50;99.90;;;;;;5449354;26;19924;-74
2024/04/17 02:19:01;;;;;;;;;;;4.40;99.90;;;;;;5449282;26;19928;-75
2024/04/17 02:21:26;;;;;;;;;;;4.40;99.90;;;;;;5451505;26;19932;-75
2024/04/17 02:23:52;;;;;;;;;;;4.40;99.90;;;;;;5451292;26;19924;-73
2024/04/17 02:26:17;;;;;;;;;;;4.30;99.90;;;;;;5451765;26;19925;-75
2024/04/17 02:28:43;;;;;;;;;;;4.30;99.90;;;;;;5452916;26;19925;-74
2024/04/17 02:31:09;;;;;;;;;;;4.20;99.90;;;;;;5455416;26;19930;-73
2024/04/17 02:33:34;;;;;;;;;;;4.20;99.90;;;;;;5452313;26;19931;-74
2024/04/17 02:36:00;;;;;;;;;;;4.20;99.90;;;;;;5450576;26;19929;-75
2024/04/17 02:38:25;;;;;;;;;;;4.10;99.90;;;;;;5450567;26;19931;-74
2024/04/17 02:40:51;;;;;;;;;;;4.20;99.90;;;;;;5450040;26;19953;-74
2024/04/17 02:43:16;;;;;;;;;;;4.10;99.90;;;;;;5449971;26;20420;-74
2024/04/17 02:45:42;;;;;;;;;;;4.10;99.90;;;;;;5450075;26;20292;-74
2024/04/17 02:48:07;;;;;;;;;;;4.20;99.90;;;;;;5447868;26;20438;-75
2024/04/17 02:50:37;;;;;;;;;;;4.20;99.90;;;;;;5450034;26;19932;-74
2024/04/17 02:53:03;;;;;;;;;;;4.20;99.90;;;;;;5449742;26;20226;-74
2024/04/17 02:55:28;;;;;;;;;;;4.20;99.90;;;;;;5447896;26;20569;-74
2024/04/17 02:57:54;;;;;;;;;;;4.20;99.90;;;;;;5449441;26;19997;-75
2024/04/17 03:00:19;;;;;;;;;;;4.30;99.90;;;;;;5447629;26;19924;-75
2024/04/17 03:02:45;;;;;;;;;;;4.30;99.90;;;;;;5447972;26;19997;-74
2024/04/17 03:05:10;;;;;;;;;;;4.30;99.90;;;;;;5447534;26;19924;-74
2024/04/17 03:07:36;;;;;;;;;;;4.40;99.90;;;;;;5449524;26;19924;-74
2024/04/17 03:10:01;;;;;;;;;;;4.40;99.90;;;;;;5447833;26;19940;-74
2024/04/17 03:12:27;;;;;;;;;;;4.40;99.90;;;;;;5449446;26;19997;-74
2024/04/17 03:14:52;;;;;;;;;;;4.40;99.90;;;;;;5447721;26;19925;-72
2024/04/17 03:17:18;;;;;;;;;;;4.40;99.90;;;;;;5447724;26;19932;-74
2024/04/17 03:19:45;;;;;;;;;;;4.40;99.90;;;;;;5449305;26;20278;-73
2024/04/17 03:22:10;;;;;;;;;;;4.50;99.90;;;;;;5449424;26;19932;-74
2024/04/17 03:24:36;;;;;;;;;;;4.40;99.90;;;;;;5448789;26;19940;-74
2024/04/17 03:27:01;;;;;;;;;;;4.50;99.90;;;;;;5449403;26;19931;-74
2024/04/17 03:29:27;;;;;;;;;;;4.50;99.90;;;;;;5449209;26;20346;-73
2024/04/17 03:31:52;;;;;;;;;;;4.50;99.90;;;;;;5447214;26;19955;-74
2024/04/17 03:34:18;;;;;;;;;;;4.50;99.90;;;;;;5447066;26;19924;-74
2024/04/17 03:36:43;;;;;;;;;;;4.50;99.90;;;;;;5449034;26;19924;-74
2024/04/17 03:39:09;;;;;;;;;;;4.50;99.90;;;;;;5447085;26;19924;-74
2024/04/17 03:41:34;;;;;;;;;;;4.50;99.90;;;;;;5447546;26;20390;-75
2024/04/17 03:44:00;;;;;;;;;;;4.60;99.90;;;;;;5449067;26;19970;-74
2024/04/17 03:46:25;;;;;;;;;;;4.60;99.90;;;;;;5448994;26;19948;-74
2024/04/17 03:48:51;;;;;;;;;;;4.60;99.90;;;;;;5452216;26;19925;-75
2024/04/17 03:51:16;;;;;;;;;;;4.60;99.90;;;;;;5452338;26;19985;-74
2024/04/17 03:53:42;;;;;;;;;;;4.60;99.90;;;;;;5452657;26;20562;-75
2024/04/17 03:56:08;;;;;;;;;;;4.60;99.90;;;;;;5452572;26;20288;-74
2024/04/17 03:58:33;;;;;;;;;;;4.60;99.90;;;;;;5451411;26;20323;-73
2024/04/17 04:00:59;;;;;;;;;;;4.60;99.90;;;;;;5452102;26;19965;-74
2024/04/17 04:03:24;;;;;;;;;;;4.60;99.90;;;;;;5452992;26;19944;-74
2024/04/17 04:05:50;;;;;;;;;;;4.60;99.90;;;;;;5458806;26;19925;-75
2024/04/17 04:08:15;;;;;;;;;;;4.60;99.90;;;;;;5456090;26;20284;-74
2024/04/17 04:10:41;;;;;;;;;;;4.70;99.90;;;;;;5455008;26;20254;-73
2024/04/17 04:13:06;;;;;;;;;;;4.80;99.90;;;;;;5462540;26;20376;-74
2024/04/17 04:15:32;;;;;;;;;;;4.80;99.90;;;;;;5459136;26;19925;-73
2024/04/17 04:17:57;;;;;;;;;;;4.80;99.90;;;;;;5455586;26;19931;-74
2024/04/17 04:20:23;;;;;;;;;;;4.80;99.90;;;;;;5452824;26;19940;-74
2024/04/17 04:22:48;;;;;;;;;;;4.90;99.90;;;;;;5450574;26;19924;-74
2024/04/17 04:25:14;;;;;;;;;;;4.90;99.90;;;;;;5450304;26;19925;-73
2024/04/17 04:27:41;;;;;;;;;;;4.90;99.90;;;;;;5450403;26;20376;-74
2024/04/17 04:30:07;;;;;;;;;;;4.90;99.90;;;;;;5452218;26;20333;-73
2024/04/17 04:32:33;;;;;;;;;;;4.90;99.90;;;;;;5450268;26;19930;-74
2024/04/17 04:34:58;;;;;;;;;;;4.90;99.90;;;;;;5451901;26;19985;-74
2024/04/17 04:37:25;;;;;;;;;;;5.00;99.90;;;;;;5451960;26;19931;-74
2024/04/17 04:39:51;;;;;;;;;;;5.10;99.90;;;;;;5449939;26;20393;-74
2024/04/17 04:42:16;;;;;;;;;;;5.20;99.90;;;;;;5450069;26;19924;-73
2024/04/17 04:44:42;;;;;;;;;;;5.30;99.90;;;;;;5449785;26;20478;-74
2024/04/17 04:47:07;;;;;;;;;;;5.40;99.90;;;;;;5451677;26;19937;-74
2024/04/17 04:49:33;;;;;;;;;;;5.40;99.90;;;;;;5449984;26;19931;-74
2024/04/17 04:51:58;;;;;;;;;;;5.50;99.90;;;;;;5450116;26;19932;-75
2024/04/17 04:54:24;;;;;;;;;;;5.50;99.90;;;;;;5450261;26;19928;-74
2024/04/17 04:56:53;;;;;;;;;;;5.60;99.90;;;;;;5449919;26;19924;-73
2024/04/17 04:59:18;;;;;;;;;;;5.70;99.90;;;;;;5450636;26;19997;-74
2024/04/17 05:01:44;;;;;;;;;;;5.90;99.90;;;;;;5450321;26;20357;-74
2024/04/17 05:04:09;;;;;;;;;;;6.10;99.90;;;;;;5452179;26;19957;-74
2024/04/17 05:06:35;;;;;;;;;;;6.30;99.90;;;;;;5452123;26;19932;-74
2024/04/17 05:09:01;;;;;;;;;;;6.40;99.90;;;;;;5452256;26;19993;-74
2024/04/17 05:11:26;;;;;;;;;;;6.60;99.90;;;;;;5451646;26;19993;-74
2024/04/17 05:13:52;;;;;;;;;;;6.70;99.90;;;;;;5450109;26;20364;-73
2024/04/17 05:16:17;;;;;;;;;;;6.90;99.90;;;;;;5450886;26;19924;-73
2024/04/17 05:18:43;;;;;;;;;;;7.30;99.90;;;;;;5449697;26;20294;-74
2024/04/17 05:21:08;;;;;;;;;;;7.80;99.90;;;;;;5451807;26;19924;-73
2024/04/17 05:23:34;;;;;;;;;;;8.10;99.90;;;;;;5455963;26;19931;-77
2024/04/17 05:25:59;;;;;;;;;;;8.30;99.90;;;;;;5454257;26;19931;-78
2024/04/17 05:28:25;;;;;;;;;;;8.50;99.90;;;;;;5450181;26;19931;-73
2024/04/17 05:30:57;;;;;;;;;;;8.70;99.90;;;;;;5451280;26;19924;-73
2024/04/17 05:33:23;;;;;;;;;;;8.90;99.90;;;;;;5449422;26;19928;-73
2024/04/17 05:35:48;;;;;;;;;;;9.30;99.90;;;;;;5448933;26;20008;-75
2024/04/17 05:38:14;;;;;;;;;;;9.80;99.90;;;;;;5448938;26;19924;-72
2024/04/17 05:40:43;;;;;;;;;;;10.40;99.90;;;;;;5449106;26;19924;-74
2024/04/17 05:43:09;;;;;;;;;;;10.70;99.90;;;;;;5449041;26;19924;-73
2024/04/17 05:45:34;;;;;;;;;;;10.80;99.90;;;;;;5450660;26;19966;-74
2024/04/17 05:48:00;;;;;;;;;;;10.80;99.90;;;;;;5450536;26;19931;-74
2024/04/17 05:50:26;;;;;;;;;;;10.90;99.90;;;;;;5450561;26;19924;-74
2024/04/17 05:52:51;;;;;;;;;;;11.30;99.90;;;;;;5450528;26;19931;-73
2024/04/17 05:55:17;;;;;;;;;;;11.70;99.90;;;;;;5450548;26;19993;-74
2024/04/17 05:57:42;;;;;;;;;;;11.90;99.90;;;;;;5450475;26;19968;-73
2024/04/17 06:00:08;;;;;;;;;;;12.20;99.90;;;;;;5448528;26;19924;-74
2024/04/17 06:02:34;;;;;;;;;;;12.50;99.90;;;;;;5450074;26;19932;-74
2024/04/17 06:04:59;;;;;;;;;;;12.70;97.50;;;;;;5448360;26;19932;-73
2024/04/17 06:07:25;;;;;;;;;;;12.70;96.80;;;;;;5448534;26;19932;-74
2024/04/17 06:09:50;;;;;;;;;;;12.60;97.50;;;;;;5447074;26;19956;-74
2024/04/17 06:12:16;;;;;;;;;;;12.50;97.50;;;;;;5450279;26;19928;-75
2024/04/17 06:14:41;;;;;;;;;;;12.60;96.60;;;;;;5448159;26;20499;-75
2024/04/17 06:17:07;;;;;;;;;;;12.90;95.10;;;;;;5450227;26;20001;-73
2024/04/17 06:19:32;;;;;;;;;;;13.10;93.10;;;;;;5448149;26;20397;-74
2024/04/17 06:21:58;;;;;;;;;;;13.60;91.60;;;;;;5450242;26;19924;-73
2024/04/17 06:24:24;;;;;;;;;;;14.10;86.10;;;;;;5448127;26;19932;-72
2024/04/17 06:26:49;;;;;;;;;;;14.60;85.10;;;;;;5449620;26;19937;-73
2024/04/17 06:29:15;;;;;;;;;;;14.90;78.00;;;;;;5447992;26;20250;-73
2024/04/17 06:31:41;;;;;;;;;;;14.80;75.70;;;;;;5450023;26;19924;-71
2024/04/17 06:34:06;;;;;;;;;;;14.80;79.00;;;;;;5447905;26;19966;-73
2024/04/17 06:36:32;;;;;;;;;;;15.10;74.40;;;;;;5449550;26;19924;-72
2024/04/17 06:38:58;;;;;;;;;;;15.30;77.50;;;;;;5449558;26;19956;-75
2024/04/17 06:41:23;;;;;;;;;;;15.40;74.90;;;;;;5449532;26;20261;-75
2024/04/17 06:43:49;;;;;;;;;;;15.90;71.10;;;;;;5447292;26;20006;-75
2024/04/17 06:46:14;;;;;;;;;;;15.90;69.30;;;;;;5449582;26;19928;-75
2024/04/17 06:48:40;;;;;;;;;;;16.20;66.60;;;;;;5449667;26;19956;-74
2024/04/17 06:51:05;;;;;;;;;;;16.50;67.40;;;;;;5449675;26;19924;-74
2024/04/17 06:53:31;;;;;;;;;;;17.00;66.10;;;;;;5447535;26;19925;-75
2024/04/17 06:55:58;;;;;;;;;;;16.90;63.60;;;;;;5449358;26;20274;-74
2024/04/17 06:58:23;;;;;;;;;;;16.60;65.00;;;;;;5449349;26;19928;-74
2024/04/17 07:00:49;;;;;;;;;;;16.70;66.20;;;;;;5447599;26;19993;-73
2024/04/17 07:03:14;;;;;;;;;;;16.50;64.60;;;;;;5447555;26;19933;-73
2024/04/17 07:05:40;;;;;;;;;;;16.20;66.00;;;;;;5446951;26;20377;-75
2024/04/17 07:08:05;;;;;;;;;;;16.40;66.70;;;;;;5447494;26;19924;-75
2024/04/17 07:10:31;;;;;;;;;;;16.50;65.80;;;;;;5449323;26;19932;-76
2024/04/17 07:12:56;;;;;;;;;;;16.60;65.70;;;;;;5449417;26;20321;-75
2024/04/17 07:15:22;;;;;;;;;;;16.90;65.40;;;;;;5449214;26;19941;-76
2024/04/17 07:17:47;;;;;;;;;;;17.20;65.50;;;;;;5447596;26;19936;-74
2024/04/17 07:20:15;;;;;;;;;;;17.60;63.10;;;;;;5451040;26;19931;-75
2024/04/17 07:22:41;;;;;;;;;;;18.00;60.50;;;;;;5452758;26;20370;-75
2024/04/17 07:25:07;;;;;;;;;;;18.10;59.60;;;;;;5452615;26;19994;-74
2024/04/17 07:27:32;;;;;;;;;;;18.10;59.00;;;;;;5452934;26;19925;-74
2024/04/17 07:29:58;;;;;;;;;;;17.80;59.40;;;;;;5450536;26;19952;-75
2024/04/17 07:32:23;;;;;;;;;;;18.00;60.70;;;;;;5450520;26;19932;-74
2024/04/17 07:34:50;;;;;;;;;;;18.30;57.00;;;;;;5450768;26;19924;-75
2024/04/17 07:37:16;;;;;;;;;;;18.30;56.20;;;;;;5450483;26;20007;-74
2024/04/17 07:39:42;;;;;;;;;;;18.30;56.10;;;;;;5452295;26;20537;-74
2024/04/17 07:42:07;;;;;;;;;;;18.30;55.40;;;;;;5452726;26;19970;-74
2024/04/17 07:44:33;;;;;;;;;;;17.80;56.80;;;;;;5450346;26;19932;-75
2024/04/17 07:46:58;;;;;;;;;;;17.60;57.10;;;;;;5450484;26;19944;-75
2024/04/17 07:49:24;;;;;;;;;;;17.30;59.00;;;;;;5452593;26;19937;-75
2024/04/17 07:51:49;;;;;;;;;;;17.30;59.10;;;;;;5452185;26;19931;-75
2024/04/17 07:54:15;;;;;;;;;;;16.90;59.70;;;;;;5452165;26;19924;-74
2024/04/17 07:56:40;;;;;;;;;;;16.60;61.60;;;;;;5452477;26;19939;-75
2024/04/17 07:59:07;;;;;;;;;;;16.70;61.60;;;;;;5450734;26;19932;-73
2024/04/17 08:01:32;;;;;;;;;;;17.00;58.30;;;;;;5449906;26;19948;-75
2024/04/17 08:03:58;;;;;;;;;;;17.20;56.10;;;;;;5451470;26;19931;-75
2024/04/17 08:06:24;;;;;;;;;;;17.30;53.80;;;;;;5452336;26;19925;-75
2024/04/17 08:08:49;;;;;;;;;;;17.30;53.50;;;;;;5451987;26;19996;-74
2024/04/17 08:11:17;;;;;;;;;;;17.20;54.50;;;;;;5449936;26;20370;-75
2024/04/17 08:13:42;;;;;;;;;;;16.90;56.10;;;;;;5451722;26;19943;-75
2024/04/17 08:16:08;;;;;;;;;;;16.70;56.60;;;;;;5451648;26;20357;-74
2024/04/17 08:18:33;;;;;;;;;;;16.30;59.00;;;;;;5450063;26;19924;-74
2024/04/17 08:20:59;;;;;;;;;;;16.10;61.40;;;;;;5451442;26;19928;-73
2024/04/17 08:23:25;;;;;;;;;;;16.10;63.30;;;;;;5451731;26;19924;-75
2024/04/17 08:25:50;;;;;;;;;;;16.40;61.80;;;;;;5449895;26;19924;-74
2024/04/17 08:28:17;;;;;;;;;;;16.60;62.30;;;;;;5449908;26;19935;-75
2024/04/17 08:30:43;;;;;;;;;;;16.70;60.10;;;;;;5451386;26;19924;-74
2024/04/17 08:33:08;;;;;;;;;;;16.80;58.30;;;;;;5449047;26;19932;-74
2024/04/17 08:35:37;;;;;;;;;;;16.70;57.80;;;;;;5451752;26;19924;-75
2024/04/17 08:38:02;;;;;;;;;;;16.80;58.20;;;;;;5449974;26;19940;-75
2024/04/17 08:40:28;;;;;;;;;;;16.70;60.30;;;;;;5451588;26;19924;-75
2024/04/17 08:42:54;;;;;;;;;;;16.60;58.40;;;;;;5451574;26;19931;-74
2024/04/17 08:45:29;;;;;;;;;;;16.40;58.60;;;;;;5451577;26;20006;-75
2024/04/17 08:47:55;;;;;;;;;;;16.30;58.20;;;;;;5451606;26;19931;-75
2024/04/17 08:50:21;;;;;;;;;;;16.60;57.30;;;;;;5451652;26;19925;-75
2024/04/17 08:52:47;;;;;;;;;;;16.60;56.90;;;;;;5449856;26;19984;-74
2024/04/17 08:55:13;;;;;;;;;;;16.70;57.40;;;;;;5449868;26;19927;-75
2024/04/17 08:57:39;;;;;;;;;;;16.60;59.50;;;;;;5451285;26;19924;-75
2024/04/17 09:00:05;;;;;;;;;;;16.70;57.40;;;;;;5451629;26;19931;-74
2024/04/17 09:02:31;;;;;;;;;;;17.00;55.80;;;;;;5451442;26;19932;-76
2024/04/17 09:04:57;;;;;;;;;;;16.90;58.40;;;;;;5451420;26;19940;-75
2024/04/17 09:07:22;;;;;;;;;;;17.10;55.60;;;;;;5451243;26;19956;-75
2024/04/17 09:09:49;;;;;;;;;;;17.20;54.90;;;;;;5451348;26;19924;-75
2024/04/17 09:12:14;;;;;;;;;;;17.40;57.10;;;;;;5449208;26;19997;-75
2024/04/17 09:14:40;;;;;;;;;;;17.90;54.40;;;;;;5449545;26;20354;-75
2024/04/17 09:17:07;;;;;;;;;;;18.20;55.60;;;;;;5451050;26;20355;-74
2024/04/17 09:19:32;;;;;;;;;;;18.60;52.10;;;;;;5451065;26;19992;-74
2024/04/17 09:21:58;;;;;;;;;;;18.20;51.30;;;;;;5449170;26;19936;-75
2024/04/17 09:24:23;;;;;;;;;;;17.90;47.40;;;;;;5449074;26;19930;-75
2024/04/17 09:26:49;;;;;;;;;;;17.40;48.70;;;;;;5449009;26;19924;-75
2024/04/17 09:29:15;;;;;;;;;;;16.60;50.20;;;;;;5449106;26;19957;-75
2024/04/17 09:31:44;;;;;;;;;;;15.80;52.70;;;;;;5451033;26;19935;-75
2024/04/17 09:34:12;;;;;;;;;;;15.60;55.10;;;;;;5449066;26;19948;-73
2024/04/17 09:36:45;;;;;;;;;;;15.30;56.50;;;;;;5449124;26;20349;-73
2024/04/17 09:39:10;;;;;;;;;;;15.00;54.60;;;;;;5451069;26;20354;-72
2024/04/17 09:41:39;;;;;;;;;;;14.70;55.60;;;;;;5448967;26;19931;-72
2024/04/17 09:44:07;;;;;;;;;;;14.40;57.30;;;;;;5448873;26;20376;-73
2024/04/17 09:46:33;;;;;;;;;;;14.20;56.50;;;;;;5450641;26;19925;-74
2024/04/17 09:49:00;;;;;;;;;;;14.00;58.60;;;;;;5451036;26;19931;-75
2024/04/17 09:51:27;;;;;;;;;;;13.70;58.60;;;;;;5448569;26;19934;-75
2024/04/17 09:53:59;;;;;;;;;;;13.50;58.70;;;;;;5450445;26;19925;-74
2024/04/17 09:56:25;;;;;;;;;;;13.40;60.10;;;;;;5450514;26;19924;-75
2024/04/17 09:58:52;;;;;;;;;;;13.30;60.40;;;;;;5448914;26;19957;-74
2024/04/17 10:01:19;;;;;;;;;;;13.20;61.70;;;;;;5450779;26;20419;-74
2024/04/17 10:03:45;;;;;;;;;;;13.10;62.50;;;;;;5448580;26;19925;-75
2024/04/17 10:06:11;;;;;;;;;;;12.90;62.50;;;;;;5448305;26;19931;-75
2024/04/17 10:08:37;;;;;;;;;;;12.80;63.60;;;;;;5450327;26;19960;-74
2024/04/17 10:11:04;;;;;;;;;;;12.70;64.50;;;;;;5448416;26;19956;-74
2024/04/17 10:13:30;;;;;;;;;;;12.60;65.00;;;;;;5450176;26;20369;-75
2024/04/17 10:15:56;;;;;;;;;;;12.50;66.20;;;;;;5450082;26;19934;-75
2024/04/17 10:18:22;;;;;;;;;;;12.50;67.90;;;;;;5448422;26;20345;-75
2024/04/17 10:20:48;;;;;;;;;;;12.40;71.20;;;;;;5450212;26;19925;-75
2024/04/17 10:23:14;;;;;;;;;;;12.40;71.50;;;;;;5448519;26;19928;-75
2024/04/17 10:25:46;;;;;;;;;;;12.30;71.80;;;;;;5448377;26;19936;-75
2024/04/17 10:28:11;;;;;;;;;;;12.20;72.50;;;;;;5448328;26;20377;-74
2024/04/17 10:30:37;;;;;;;;;;;12.10;73.30;;;;;;5450096;26;19924;-75
2024/04/17 10:33:03;;;;;;;;;;;12.00;76.00;;;;;;5448376;26;19924;-74
2024/04/17 10:35:32;;;;;;;;;;;11.90;75.00;;;;;;5450122;26;19925;-75
2024/04/17 10:38:05;;;;;;;;;;;11.80;74.90;;;;;;5448305;26;19947;-75
2024/04/17 10:40:31;;;;;;;;;;;11.60;76.70;;;;;;5449974;26;19932;-75
2024/04/17 10:42:56;;;;;;;;;;;11.60;79.90;;;;;;5449338;26;19993;-74
2024/04/17 10:45:23;;;;;;;;;;;11.50;83.70;;;;;;5449495;26;19933;-74
2024/04/17 10:47:51;;;;;;;;;;;11.50;85.00;;;;;;5447608;26;19932;-73
2024/04/17 10:50:17;;;;;;;;;;;11.40;86.30;;;;;;5447623;26;19931;-74
2024/04/17 10:52:43;;;;;;;;;;;11.50;83.50;;;;;;5449771;26;19924;-75
2024/04/17 10:55:10;;;;;;;;;;;11.40;86.70;;;;;;5448449;26;19932;-74
2024/04/17 10:57:35;;;;;;;;;;;11.40;85.10;;;;;;5452747;26;19936;-74
2024/04/17 11:00:01;;;;;;;;;;;11.40;87.90;;;;;;5452987;26;19925;-74
2024/04/17 11:02:28;;;;;;;;;;;11.50;83.70;;;;;;5451246;26;19952;-74
2024/04/17 11:04:53;;;;;;;;;;;11.40;83.40;;;;;;5450819;26;19975;-74
2024/04/17 11:07:19;;;;;;;;;;;11.50;85.10;;;;;;5451135;26;19925;-74
2024/04/17 11:09:45;;;;;;;;;;;11.50;85.30;;;;;;5451313;26;19935;-75
2024/04/17 11:12:12;;;;;;;;;;;11.50;85.10;;;;;;5452882;26;20275;-74
2024/04/17 11:14:38;;;;;;;;;;;11.50;84.70;;;;;;5453035;26;19925;-73
2024/04/17 11:17:03;;;;;;;;;;;11.60;84.80;;;;;;5450377;26;20361;-72
2024/04/17 11:19:29;;;;;;;;;;;11.70;84.50;;;;;;5451131;26;20022;-74
2024/04/17 11:21:56;;;;;;;;;;;11.80;87.80;;;;;;5450607;26;20367;-74
2024/04/17 11:24:22;;;;;;;;;;;11.90;87.60;;;;;;5450541;26;19924;-74
2024/04/17 11:26:48;;;;;;;;;;;12.10;84.50;;;;;;5452931;26;20381;-74
2024/04/17 11:29:18;;;;;;;;;;;12.20;90.00;;;;;;5453014;26;19924;-74
2024/04/17 11:31:44;;;;;;;;;;;12.10;92.60;;;;;;5452098;26;20529;-74
2024/04/17 11:34:19;;;;;;;;;;;12.20;93.60;;;;;;5452442;26;19957;-74
2024/04/17 11:36:46;;;;;;;;;;;12.20;92.10;;;;;;5450559;26;20425;-74
2024/04/17 11:39:12;;;;;;;;;;;12.20;90.20;;;;;;5450461;26;19937;-73
2024/04/17 11:41:37;;;;;;;;;;;12.30;88.60;;;;;;5452253;26;19925;-73
2024/04/17 11:44:03;;;;;;;;;;;12.30;88.70;;;;;;5450435;26;19932;-74
2024/04/17 11:46:28;;;;;;;;;;;12.30;90.40;;;;;;5450222;26;19992;-72
2024/04/17 11:48:54;;;;;;;;;;;12.30;90.50;;;;;;5450239;26;19930;-74
2024/04/17 11:51:21;;;;;;;;;;;12.30;88.60;;;;;;5452222;26;19924;-74
2024/04/17 11:53:46;;;;;;;;;;;12.30;88.80;;;;;;5452211;26;19924;-74
2024/04/17 11:56:12;;;;;;;;;;;12.50;91.40;;;;;;5452229;26;19992;-73
2024/04/17 11:58:38;;;;;;;;;;;12.70;89.90;;;;;;5450374;26;19929;-74
2024/04/17 12:01:04;;;;;;;;;;;13.00;84.70;;;;;;5450368;26;20252;-74
2024/04/17 12:03:31;;;;;;;;;;;13.20;84.80;;;;;;5451929;26;19937;-74
2024/04/17 12:05:56;;;;;;;;;;;13.40;83.60;;;;;;5451260;26;20294;-72
2024/04/17 12:08:23;;;;;;;;;;;13.60;84.10;;;;;;5451282;26;19924;-74
2024/04/17 12:10:48;;;;;;;;;;;13.70;82.60;;;;;;5442242;26;19940;-73
2024/04/17 12:13:14;;;;;;;;;;;13.80;83.80;;;;;;5450008;26;19925;-73
2024/04/17 12:15:40;;;;;;;;;;;13.90;81.00;;;;;;5451466;26;19924;-73
2024/04/17 12:18:05;;;;;;;;;;;14.10;78.20;;;;;;5451608;26;20347;-73
2024/04/17 12:20:31;;;;;;;;;;;14.40;77.90;;;;;;5451815;26;19932;-73
2024/04/17 12:22:57;;;;;;;;;;;14.60;73.80;;;;;;5449842;26;19924;-73
2024/04/17 12:28:07;;;;;;;;;;;15.00;67.60;;;;;;5451795;26;19957;-75
2024/04/17 12:30:32;;;;;;;;;;;15.10;66.40;;;;;;5449574;26;19924;-74
2024/04/17 12:32:58;;;;;;;;;;;15.20;68.20;;;;;;5449877;26;19924;-74
2024/04/17 12:35:23;;;;;;;;;;;15.40;64.80;;;;;;5449741;26;20261;-73
2024/04/17 12:37:49;;;;;;;;;;;15.40;62.90;;;;;;5449261;26;20357;-74
2024/04/17 12:40:15;;;;;;;;;;;15.20;63.10;;;;;;5451687;26;20376;-74
2024/04/17 12:42:40;;;;;;;;;;;15.20;60.70;;;;;;5451273;26;20006;-74
2024/04/17 12:45:06;;;;;;;;;;;15.30;62.60;;;;;;5449525;26;19936;-74
2024/04/17 12:47:31;;;;;;;;;;;15.50;62.10;;;;;;5451379;26;19931;-74
2024/04/17 12:49:57;;;;;;;;;;;15.50;63.80;;;;;;5451477;26;20365;-74
2024/04/17 12:52:23;;;;;;;;;;;15.30;61.80;;;;;;5451261;26;19925;-73
2024/04/17 12:54:50;;;;;;;;;;;15.00;60.20;;;;;;5451149;26;19931;-74
2024/04/17 12:57:15;;;;;;;;;;;14.60;63.20;;;;;;5449451;26;19924;-74
2024/04/17 12:59:58;;;;;;;;;;;14.40;67.70;;;;;;5449011;26;20357;-72
2024/04/17 13:02:26;;;;;;;;;;;14.00;74.60;;;;;;5450915;26;19924;-73
2024/04/17 13:04:51;;;;;;;;;;;13.80;71.40;;;;;;5450927;26;19993;-74
2024/04/17 13:07:17;;;;;;;;;;;13.70;73.90;;;;;;5449160;26;19925;-73
2024/04/17 13:09:42;;;;;;;;;;;13.60;86.40;;;;;;5451198;26;19936;-73
2024/04/17 13:12:08;;;;;;;;;;;13.60;84.20;;;;;;5443678;26;19924;-73
2024/04/17 13:14:33;;;;;;;;;;;13.60;88.00;;;;;;5449285;26;19924;-73
2024/04/17 13:16:59;;;;;;;;;;;13.70;95.20;;;;;;5449189;26;19925;-73
2024/04/17 13:19:26;;;;;;;;;;;14.00;95.70;;;;;;5448828;26;19949;-74
2024/04/17 13:21:52;;;;;;;;;;;14.10;93.80;;;;;;5450991;26;19931;-73
2024/04/17 13:24:18;;;;;;;;;;;14.20;93.40;;;;;;5448926;26;19925;-75
2024/04/17 13:26:43;;;;;;;;;;;14.20;89.90;;;;;;5449355;26;19932;-74
2024/04/17 13:29:09;;;;;;;;;;;14.30;86.70;;;;;;5448934;26;20247;-74
2024/04/17 13:31:34;;;;;;;;;;;14.30;88.30;;;;;;5450989;26;19924;-74
2024/04/17 13:34:00;;;;;;;;;;;14.20;90.10;;;;;;5449571;26;19931;-73
2024/04/17 13:36:25;;;;;;;;;;;14.10;91.90;;;;;;5451164;26;19924;-73
2024/04/17 13:38:52;;;;;;;;;;;14.10;91.90;;;;;;5451078;26;19931;-73
2024/04/17 13:41:17;;;;;;;;;;;14.10;93.40;;;;;;5451086;26;20254;-73
2024/04/17 13:43:43;;;;;;;;;;;14.00;92.30;;;;;;5450679;26;19947;-73
2024/04/17 13:46:10;;;;;;;;;;;14.00;93.60;;;;;;5450510;26;20010;-73
2024/04/17 13:48:35;;;;;;;;;;;14.00;93.60;;;;;;5450694;26;19958;-72
2024/04/17 13:51:02;;;;;;;;;;;13.90;93.60;;;;;;5450842;26;19924;-73
2024/04/17 13:53:28;;;;;;;;;;;13.90;93.00;;;;;;5450619;26;20277;-73
2024/04/17 13:55:54;;;;;;;;;;;13.90;93.00;;;;;;5450697;26;19931;-73
2024/04/17 13:58:19;;;;;;;;;;;13.80;90.50;;;;;;5450622;26;19931;-74
2024/04/17 14:00:45;;;;;;;;;;;13.80;89.90;;;;;;5450569;26;19924;-74
2024/04/17 14:03:11;;;;;;;;;;;13.80;90.80;;;;;;5448405;26;19925;-73
2024/04/17 14:05:37;;;;;;;;;;;13.70;91.10;;;;;;5448686;26;19931;-74
2024/04/17 14:08:03;;;;;;;;;;;13.70;92.10;;;;;;5448714;26;19936;-73
2024/04/17 14:10:28;;;;;;;;;;;13.60;91.70;;;;;;5448580;26;19924;-73
2024/04/17 14:12:54;;;;;;;;;;;13.60;91.30;;;;;;5450178;26;19931;-73
2024/04/17 14:15:20;;;;;;;;;;;13.70;91.40;;;;;;5450183;26;19932;-73